createdAt,value
2023-04-04T00:00:04.166Z,1031.48
2023-04-04T00:15:01.861Z,1031.43
2023-04-04T00:25:01.930Z,1031.44
2023-04-04T00:30:00.910Z,1031.34
2023-04-04T00:35:01.089Z,1031.34
2023-04-04T00:40:00.984Z,1031.22
2023-04-04T00:45:05.925Z,1031.22
2023-04-04T01:00:15.833Z,1031.10
2023-04-04T01:30:01.176Z,1030.89
2023-04-04T01:45:02.007Z,1030.84
2023-04-04T01:50:01.035Z,1030.76
2023-04-04T02:00:04.996Z,1030.80
2023-04-04T02:15:02.024Z,1030.86
2023-04-04T03:10:01.163Z,1030.53
2023-04-04T03:15:01.163Z,1030.53
2023-04-04T03:25:01.048Z,1030.38
2023-04-04T03:30:01.130Z,1030.26
2023-04-04T03:45:01.129Z,1030.41
2023-04-04T03:55:00.929Z,1030.43
2023-04-04T04:00:01.895Z,1030.34
2023-04-04T04:10:00.907Z,1030.32
2023-04-04T04:15:01.197Z,1030.32
2023-04-04T05:10:01.152Z,1030.37
2023-04-04T05:15:01.069Z,1030.37
2023-04-04T05:50:01.649Z,1030.28
2023-04-04T06:00:05.672Z,1030.22
2023-04-04T06:10:01.528Z,1030.15
2023-04-04T06:15:01.616Z,1030.15
2023-04-04T06:20:02.467Z,1029.98
2023-04-04T06:25:02.112Z,1029.98
2023-04-04T06:30:01.617Z,1029.82
2023-04-04T06:35:08.648Z,1029.82
2023-04-04T06:40:01.518Z,1029.88
2023-04-04T06:45:02.600Z,1029.88
2023-04-04T06:50:01.810Z,1029.85
2023-04-04T06:55:01.466Z,1029.85
2023-04-04T07:00:02.940Z,1029.84
2023-04-04T07:05:01.497Z,1029.84
2023-04-04T07:10:02.008Z,1029.71
2023-04-04T07:15:16.282Z,1029.71
2023-04-04T07:40:01.724Z,1029.56
2023-04-04T07:45:01.753Z,1029.56
2023-04-04T07:50:07.890Z,1029.53
2023-04-04T07:55:02.421Z,1029.53
2023-04-04T08:00:03.679Z,1029.43
2023-04-04T08:05:01.549Z,1029.43
2023-04-04T08:10:02.341Z,1029.27
2023-04-04T08:15:01.533Z,1029.27
2023-04-04T08:20:01.523Z,1029.30
2023-04-04T08:25:02.478Z,1029.30
2023-04-04T08:30:02.154Z,1029.17
2023-04-04T08:35:01.581Z,1029.17
2023-04-04T08:40:01.534Z,1029.01
2023-04-04T08:45:02.365Z,1029.01
2023-04-04T08:50:03.451Z,1029.05
2023-04-04T09:00:08.049Z,1029.04
2023-04-04T09:05:07.415Z,1029.04
2023-04-04T09:10:02.308Z,1029.01
2023-04-04T09:15:21.364Z,1029.01
2023-04-04T09:40:01.824Z,1028.99
2023-04-04T09:45:00.748Z,1028.99
2023-04-04T09:50:00.638Z,1028.87
2023-04-04T10:00:01.244Z,1028.85
2023-04-04T10:05:07.073Z,1028.85
2023-04-04T10:10:15.536Z,1028.94
2023-04-04T10:40:07.540Z,1028.64
2023-04-04T10:45:20.293Z,1028.64
2023-04-04T10:50:02.367Z,1028.62
2023-04-04T11:00:02.297Z,1028.46
2023-04-04T11:05:02.178Z,1028.46
2023-04-04T11:10:01.253Z,1028.41
2023-04-04T11:15:01.363Z,1028.41
2023-04-04T11:20:01.658Z,1028.38
2023-04-04T11:25:02.294Z,1028.38
2023-04-04T11:30:02.219Z,1028.36
2023-04-04T11:35:01.339Z,1028.36
2023-04-04T11:40:01.347Z,1028.35
2023-04-04T11:45:01.290Z,1028.35
2023-04-04T11:50:01.967Z,1028.27
2023-04-04T11:55:01.333Z,1028.27
2023-04-04T12:00:03.266Z,1028.19
2023-04-04T12:10:01.486Z,1027.98
2023-04-04T12:20:02.294Z,1027.95
2023-04-04T12:25:02.207Z,1027.95
2023-04-04T12:30:01.235Z,1027.87
2023-04-04T12:45:01.432Z,1027.79
2023-04-04T13:00:04.666Z,1027.46
2023-04-04T13:05:01.339Z,1027.46
2023-04-04T13:15:16.286Z,1027.51
2023-04-04T13:40:01.421Z,1027.13
2023-04-04T13:45:00.927Z,1027.13
2023-04-04T13:50:00.807Z,1027.04
2023-04-04T14:00:10.970Z,1026.97
2023-04-04T14:15:01.009Z,1026.77
2023-04-04T14:25:01.873Z,1026.80
2023-04-04T14:30:00.880Z,1026.62
2023-04-04T14:35:01.903Z,1026.62
2023-04-04T14:40:00.898Z,1026.57
2023-04-04T14:45:01.350Z,1026.57
2023-04-04T14:50:01.170Z,1026.54
2023-04-04T14:55:00.997Z,1026.54
2023-04-04T15:00:04.046Z,1026.44
2023-04-04T15:05:00.965Z,1026.44
2023-04-04T15:10:00.826Z,1026.46
2023-04-04T15:15:02.075Z,1026.46
2023-04-04T15:30:00.979Z,1026.17
2023-04-04T15:35:00.983Z,1026.17
2023-04-04T15:40:01.328Z,1026.18
2023-04-04T15:45:01.984Z,1026.18
2023-04-04T15:50:00.933Z,1025.93
2023-04-04T15:55:01.933Z,1025.93
2023-04-04T16:00:01.205Z,1025.79
2023-04-04T16:05:15.852Z,1025.79
2023-04-04T16:30:01.615Z,1025.70
2023-04-04T16:45:05.578Z,1025.60
2023-04-04T16:50:00.617Z,1025.61
2023-04-04T16:55:00.503Z,1025.61
2023-04-04T17:00:04.913Z,1025.53
2023-04-04T17:05:00.581Z,1025.53
2023-04-04T17:10:01.162Z,1025.53
2023-04-04T17:15:01.718Z,1025.53
2023-04-04T17:20:01.001Z,1025.41
2023-04-04T17:25:00.587Z,1025.41
2023-04-04T17:30:00.560Z,1025.48
2023-04-04T17:35:00.624Z,1025.48
2023-04-04T17:40:00.655Z,1025.46
2023-04-04T17:45:00.590Z,1025.46
2023-04-04T17:50:01.144Z,1025.51
2023-04-04T17:55:00.565Z,1025.51
2023-04-04T18:00:03.031Z,1025.48
2023-04-04T18:05:00.581Z,1025.48
2023-04-04T18:10:00.578Z,1025.40
2023-04-04T18:15:00.708Z,1025.40
2023-04-04T18:25:06.242Z,1025.43
2023-04-04T18:30:00.534Z,1025.36
2023-04-04T18:45:00.612Z,1025.39
2023-04-04T18:50:00.588Z,1025.32
2023-04-04T19:00:02.763Z,1025.31
2023-04-04T19:05:01.409Z,1025.31
2023-04-04T19:10:00.596Z,1025.38
2023-04-04T19:15:00.841Z,1025.38
2023-04-04T19:20:05.628Z,1025.51
2023-04-04T19:25:00.736Z,1025.51
2023-04-04T19:30:00.608Z,1025.52
2023-04-04T19:35:05.544Z,1025.52
2023-04-04T19:40:01.105Z,1025.59
2023-04-04T19:45:01.235Z,1025.59
2023-04-04T19:50:00.716Z,1025.53
2023-04-04T19:55:00.734Z,1025.53
2023-04-04T20:00:01.222Z,1025.50
2023-04-04T20:15:01.576Z,1025.46
2023-04-04T20:30:02.144Z,1025.52
2023-04-04T20:40:00.768Z,1025.48
2023-04-04T20:45:00.907Z,1025.48
2023-04-04T20:50:05.933Z,1025.50
2023-04-04T20:55:00.740Z,1025.50
2023-04-04T21:00:01.350Z,1025.50
2023-04-04T21:10:16.438Z,1025.42
2023-04-04T21:40:02.283Z,1025.28
2023-04-04T21:45:01.182Z,1025.28
2023-04-04T22:00:03.237Z,1025.17
2023-04-04T22:10:15.967Z,1025.15
2023-04-04T22:40:01.914Z,1025.34
2023-04-04T22:45:01.703Z,1025.34
2023-04-04T23:00:00.781Z,1025.07
2023-04-04T23:10:00.547Z,1025.08
2023-04-04T23:15:01.985Z,1025.08
2023-04-04T23:20:00.769Z,1025.06
2023-04-04T23:30:15.567Z,1025.09
